createdAt,value
2023-05-22T00:00:18.870Z,17.85
2023-05-22T00:02:47.045Z,17.82
2023-05-22T00:05:18.504Z,17.71
2023-05-22T00:07:47.914Z,17.54
2023-05-22T00:10:15.873Z,17.41
2023-05-22T00:12:43.858Z,17.31
2023-05-22T00:15:12.726Z,17.29
2023-05-22T00:17:40.811Z,17.25
2023-05-22T00:20:11.149Z,17.21
2023-05-22T00:22:39.216Z,17.23
2023-05-22T00:25:09.998Z,17.22
2023-05-22T00:27:37.973Z,17.25
2023-05-22T00:30:08.111Z,17.32
2023-05-22T00:32:36.210Z,17.36
2023-05-22T00:35:04.548Z,17.37
2023-05-22T00:37:32.566Z,17.33
2023-05-22T00:40:00.509Z,17.32
2023-05-22T00:42:29.941Z,17.38
2023-05-22T00:44:57.879Z,17.42
2023-05-22T00:47:27.113Z,17.44
2023-05-22T00:49:55.851Z,17.54
2023-05-22T00:52:23.877Z,17.63
2023-05-22T00:54:52.606Z,17.72
2023-05-22T00:57:22.846Z,17.72
2023-05-22T00:59:52.363Z,17.76
2023-05-22T01:02:21.381Z,17.77
2023-05-22T01:04:49.864Z,17.79
2023-05-22T01:07:18.743Z,17.79
2023-05-22T01:09:46.766Z,17.77
2023-05-22T01:12:23.127Z,17.77
2023-05-22T01:15:02.752Z,17.72
2023-05-22T01:18:01.298Z,17.64
2023-05-22T01:20:34.353Z,17.62
2023-05-22T01:23:30.177Z,17.61
2023-05-22T01:26:13.974Z,17.56
2023-05-22T01:28:53.499Z,17.52
2023-05-22T01:31:26.752Z,17.47
2023-05-22T01:33:57.394Z,17.42
2023-05-22T01:36:29.825Z,17.29
2023-05-22T01:39:01.355Z,17.20
2023-05-22T01:41:30.579Z,17.23
2023-05-22T01:43:58.890Z,17.23
2023-05-22T01:46:28.878Z,17.23
2023-05-22T01:48:57.263Z,17.22
2023-05-22T01:51:34.551Z,17.07
2023-05-22T01:54:09.314Z,16.87
2023-05-22T01:56:48.907Z,16.83
2023-05-22T01:59:28.007Z,16.75
2023-05-22T02:02:01.728Z,16.95
2023-05-22T02:04:32.415Z,16.96
2023-05-22T02:07:01.840Z,17.00
2023-05-22T02:09:32.105Z,16.88
2023-05-22T02:12:01.693Z,16.74
2023-05-22T02:14:31.277Z,16.66
2023-05-22T02:17:02.140Z,16.69
2023-05-22T02:19:30.335Z,16.64
2023-05-22T02:21:58.327Z,16.60
2023-05-22T02:24:26.264Z,16.61
2023-05-22T02:26:54.734Z,16.67
2023-05-22T02:29:22.830Z,16.77
2023-05-22T02:31:50.898Z,16.73
2023-05-22T02:34:20.909Z,16.81
2023-05-22T02:36:51.062Z,16.87
2023-05-22T02:39:19.297Z,16.85
2023-05-22T02:41:47.267Z,16.78
2023-05-22T02:44:15.335Z,16.79
2023-05-22T02:46:44.300Z,16.88
2023-05-22T02:49:13.184Z,16.88
2023-05-22T02:51:47.495Z,16.81
2023-05-22T02:54:16.509Z,16.81
2023-05-22T02:56:44.901Z,16.76
2023-05-22T02:59:12.857Z,16.64
2023-05-22T03:01:44.465Z,16.57
2023-05-22T03:04:13.982Z,16.47
2023-05-22T03:06:46.389Z,16.34
2023-05-22T03:09:14.378Z,16.27
2023-05-22T03:11:42.383Z,16.25
2023-05-22T03:14:10.345Z,16.25
2023-05-22T03:16:38.478Z,16.28
2023-05-22T03:19:10.691Z,16.31
2023-05-22T03:21:39.113Z,16.35
2023-05-22T03:24:09.097Z,16.39
2023-05-22T03:26:37.266Z,16.48
2023-05-22T03:29:08.776Z,16.61
2023-05-22T03:31:39.539Z,16.57
2023-05-22T03:34:13.173Z,16.44
2023-05-22T03:36:46.025Z,16.53
2023-05-22T03:39:17.741Z,16.63
2023-05-22T03:41:55.414Z,16.56
2023-05-22T03:44:25.652Z,16.50
2023-05-22T03:46:54.765Z,16.41
2023-05-22T03:49:22.702Z,16.53
2023-05-22T03:51:50.804Z,16.69
2023-05-22T03:54:20.419Z,16.67
2023-05-22T03:56:48.325Z,16.95
2023-05-22T03:59:16.406Z,17.04
2023-05-22T04:01:46.579Z,17.13
2023-05-22T04:04:14.632Z,17.12
2023-05-22T04:06:43.887Z,17.08
2023-05-22T04:09:14.497Z,17.14
2023-05-22T04:11:43.824Z,17.21
2023-05-22T04:14:11.774Z,17.28
2023-05-22T04:16:42.252Z,17.30
2023-05-22T04:19:10.394Z,17.25
2023-05-22T04:21:39.291Z,17.30
2023-05-22T04:24:09.483Z,17.34
2023-05-22T04:26:39.942Z,17.48
2023-05-22T04:29:10.574Z,17.45
2023-05-22T04:31:38.884Z,17.24
2023-05-22T04:34:07.465Z,17.17
2023-05-22T04:36:35.942Z,17.17
2023-05-22T04:39:04.085Z,17.19
2023-05-22T04:41:32.497Z,17.29
2023-05-22T04:44:00.458Z,17.22
2023-05-22T04:46:29.799Z,17.22
2023-05-22T04:49:02.130Z,17.24
2023-05-22T04:51:31.382Z,17.27
2023-05-22T04:53:59.504Z,17.34
2023-05-22T04:56:36.353Z,17.45
2023-05-22T04:59:11.490Z,17.48
2023-05-22T05:01:41.349Z,17.38
2023-05-22T05:04:09.542Z,17.25
2023-05-22T05:06:37.883Z,17.25
2023-05-22T05:09:06.378Z,17.25
2023-05-22T05:11:34.336Z,17.29
2023-05-22T05:14:02.576Z,17.46
2023-05-22T05:16:30.591Z,17.58
2023-05-22T05:18:59.934Z,17.69
2023-05-22T05:21:28.826Z,17.67
2023-05-22T05:24:00.952Z,17.74
2023-05-22T05:26:28.870Z,17.84
2023-05-22T05:28:57.438Z,17.95
2023-05-22T05:31:30.942Z,18.00
2023-05-22T05:34:22.786Z,18.33
2023-05-22T05:37:10.945Z,18.82
2023-05-22T05:39:39.719Z,19.16
2023-05-22T05:42:10.504Z,19.44
2023-05-22T05:44:38.616Z,19.61
2023-05-22T05:47:08.550Z,19.67
2023-05-22T05:49:38.615Z,19.63
2023-05-22T05:52:08.227Z,19.58
2023-05-22T05:54:37.387Z,19.55
2023-05-22T05:57:13.134Z,19.69
2023-05-22T05:59:41.297Z,19.78
2023-05-22T06:02:30.199Z,19.72
2023-05-22T06:05:02.990Z,19.63
2023-05-22T06:07:38.036Z,19.54
2023-05-22T06:10:08.373Z,19.59
2023-05-22T06:12:56.632Z,19.70
2023-05-22T06:15:24.825Z,19.90
2023-05-22T06:17:52.794Z,20.00
2023-05-22T06:20:25.054Z,19.85
2023-05-22T06:22:53.247Z,19.63
2023-05-22T06:25:21.287Z,19.51
2023-05-22T06:27:50.137Z,19.56
2023-05-22T06:30:25.432Z,19.65
2023-05-22T06:33:06.476Z,19.75
2023-05-22T06:35:35.835Z,19.89
2023-05-22T06:38:04.109Z,20.02
2023-05-22T06:40:32.088Z,20.13
2023-05-22T06:43:08.992Z,20.15
2023-05-22T06:45:46.775Z,20.17
2023-05-22T06:48:23.839Z,20.08
2023-05-22T06:51:09.898Z,19.95
2023-05-22T06:53:38.168Z,19.83
2023-05-22T06:56:10.866Z,19.77
2023-05-22T06:58:50.761Z,19.77
2023-05-22T07:01:20.154Z,19.89
2023-05-22T07:04:01.933Z,20.07
2023-05-22T07:06:39.154Z,20.06
2023-05-22T07:09:08.556Z,20.12
2023-05-22T07:11:36.787Z,20.21
2023-05-22T07:14:05.001Z,20.27
2023-05-22T07:16:33.346Z,20.45
2023-05-22T07:19:03.410Z,20.57
2023-05-22T07:21:31.949Z,20.64
2023-05-22T07:24:03.344Z,20.83
2023-05-22T07:26:31.765Z,20.86
2023-05-22T07:29:06.673Z,20.95
2023-05-22T07:31:35.497Z,20.93
2023-05-22T07:34:03.644Z,20.93
2023-05-22T07:36:31.849Z,20.94
2023-05-22T07:39:01.442Z,20.87
2023-05-22T07:41:29.768Z,20.95
2023-05-22T07:43:58.045Z,20.98
2023-05-22T07:46:31.557Z,21.09
2023-05-22T07:49:08.386Z,21.02
2023-05-22T07:51:37.875Z,20.98
2023-05-22T07:54:08.020Z,21.02
2023-05-22T07:56:39.596Z,21.09
2023-05-22T07:59:09.116Z,21.14
2023-05-22T08:01:37.556Z,21.16
2023-05-22T08:04:06.434Z,21.20
2023-05-22T08:06:36.050Z,21.30
2023-05-22T08:09:05.477Z,21.28
2023-05-22T08:11:39.091Z,21.33
2023-05-22T08:14:07.870Z,21.38
2023-05-22T08:16:35.847Z,21.38
2023-05-22T08:19:04.480Z,21.43
2023-05-22T08:21:34.609Z,21.54
2023-05-22T08:24:02.809Z,21.68
2023-05-22T08:26:32.224Z,21.80
2023-05-22T08:29:01.936Z,21.86
2023-05-22T08:31:30.106Z,21.95
2023-05-22T08:34:02.214Z,22.09
2023-05-22T08:36:34.098Z,22.19
2023-05-22T08:39:02.402Z,22.26
2023-05-22T08:41:30.730Z,22.25
2023-05-22T08:43:58.787Z,22.22
2023-05-22T08:46:29.199Z,22.18
2023-05-22T08:48:58.495Z,22.07
2023-05-22T08:51:31.329Z,22.00
2023-05-22T08:54:00.989Z,22.02
2023-05-22T08:56:29.836Z,22.08
2023-05-22T08:58:59.399Z,22.21
2023-05-22T09:01:29.594Z,22.37
2023-05-22T09:04:01.765Z,22.51
2023-05-22T09:06:30.187Z,22.62
2023-05-22T09:08:58.673Z,22.71
2023-05-22T09:11:27.037Z,22.70
2023-05-22T09:14:07.846Z,22.63
2023-05-22T09:16:45.260Z,22.55
2023-05-22T09:19:13.749Z,22.44
2023-05-22T09:21:42.238Z,22.22
2023-05-22T09:24:12.006Z,22.20
2023-05-22T09:26:40.652Z,22.10
2023-05-22T09:29:09.093Z,22.05
2023-05-22T09:31:43.409Z,22.00
2023-05-22T09:34:14.330Z,21.95
2023-05-22T09:36:45.349Z,21.90
2023-05-22T09:39:13.407Z,21.89
2023-05-22T09:41:41.392Z,21.90
2023-05-22T09:44:16.588Z,21.91
2023-05-22T09:46:47.451Z,21.90
2023-05-22T09:49:17.042Z,21.87
2023-05-22T09:51:48.665Z,21.87
2023-05-22T09:54:17.604Z,21.88
2023-05-22T09:56:50.358Z,21.87
2023-05-22T09:59:22.479Z,21.85
2023-05-22T10:01:52.748Z,21.87
2023-05-22T10:04:23.852Z,21.88
2023-05-22T10:06:54.410Z,21.87
2023-05-22T10:09:25.757Z,21.89
2023-05-22T10:11:56.241Z,21.92
2023-05-22T10:14:25.495Z,21.94
2023-05-22T10:16:56.876Z,21.96
2023-05-22T10:19:27.870Z,21.93
2023-05-22T10:21:57.911Z,21.97
2023-05-22T10:24:26.419Z,22.01
2023-05-22T10:26:55.412Z,22.00
2023-05-22T10:33:40.193Z,22.09
2023-05-22T10:36:11.278Z,22.11
2023-05-22T10:38:53.917Z,22.11
2023-05-22T10:41:22.367Z,22.21
2023-05-22T10:43:51.299Z,22.25
2023-05-22T10:46:19.939Z,22.28
2023-05-22T10:48:50.866Z,22.34
2023-05-22T10:51:21.877Z,22.40
2023-05-22T10:53:54.140Z,22.37
2023-05-22T10:56:25.112Z,22.54
2023-05-22T10:59:02.760Z,22.63
2023-05-22T11:01:30.779Z,22.68
2023-05-22T11:04:12.973Z,22.74
2023-05-22T11:06:46.289Z,22.77
2023-05-22T11:09:27.443Z,22.73
2023-05-22T11:12:18.206Z,22.69
2023-05-22T11:14:51.085Z,22.69
2023-05-22T11:17:21.817Z,22.71
2023-05-22T11:19:59.019Z,22.71
2023-05-22T11:22:37.902Z,22.73
2023-05-22T11:25:09.212Z,22.78
2023-05-22T11:27:39.243Z,22.85
2023-05-22T11:30:09.533Z,22.92
2023-05-22T11:32:38.393Z,23.03
2023-05-22T11:35:09.235Z,23.11
2023-05-22T11:37:40.709Z,23.16
2023-05-22T11:40:10.815Z,23.24
2023-05-22T11:42:39.061Z,23.31
2023-05-22T11:45:08.347Z,23.35
2023-05-22T11:47:36.455Z,23.42
2023-05-22T11:50:06.688Z,23.40
2023-05-22T11:52:37.776Z,23.39
2023-05-22T11:55:06.843Z,23.42
2023-05-22T11:57:35.827Z,23.48
2023-05-22T12:00:06.527Z,23.41
2023-05-22T12:02:40.212Z,23.51
2023-05-22T12:05:11.903Z,23.53
2023-05-22T12:07:41.409Z,23.62
2023-05-22T12:10:11.038Z,23.71
2023-05-22T12:12:39.289Z,23.80
2023-05-22T12:15:08.099Z,23.86
2023-05-22T12:17:37.463Z,23.94
2023-05-22T12:20:07.098Z,24.06
2023-05-22T12:22:35.077Z,24.15
2023-05-22T12:25:15.128Z,24.33
2023-05-22T12:27:44.796Z,24.39
2023-05-22T12:30:15.006Z,24.54
2023-05-22T12:32:48.503Z,24.75
2023-05-22T12:35:17.347Z,24.81
2023-05-22T12:37:51.198Z,24.98
2023-05-22T12:40:20.657Z,25.08
2023-05-22T12:42:52.193Z,25.21
2023-05-22T12:45:20.153Z,25.28
2023-05-22T12:47:48.038Z,25.38
2023-05-22T12:50:16.178Z,25.55
2023-05-22T12:52:44.203Z,25.68
2023-05-22T12:55:12.180Z,25.78
2023-05-22T12:57:41.443Z,25.97
2023-05-22T13:00:10.158Z,26.15
2023-05-22T13:02:38.170Z,26.32
2023-05-22T13:05:07.108Z,26.46
2023-05-22T13:07:35.149Z,26.63
2023-05-22T13:10:04.969Z,26.70
2023-05-22T13:12:33.332Z,26.85
2023-05-22T13:15:03.163Z,27.14
2023-05-22T13:17:32.683Z,27.41
2023-05-22T13:20:00.667Z,27.55
2023-05-22T13:22:28.580Z,27.67
2023-05-22T13:24:56.441Z,27.83
2023-05-22T13:27:24.645Z,28.10
2023-05-22T13:29:52.616Z,28.28
2023-05-22T13:32:21.892Z,28.44
2023-05-22T13:34:52.128Z,28.48
2023-05-22T13:37:21.570Z,28.56
2023-05-22T13:39:49.464Z,28.66
2023-05-22T13:42:17.481Z,28.69
2023-05-22T13:44:46.837Z,28.45
2023-05-22T13:47:15.709Z,28.12
2023-05-22T13:49:45.017Z,28.10
2023-05-22T13:52:12.928Z,27.98
2023-05-22T13:54:41.091Z,28.00
2023-05-22T13:57:09.085Z,28.11
2023-05-22T13:59:37.035Z,28.17
2023-05-22T14:02:05.252Z,28.08
2023-05-22T14:04:33.215Z,28.13
2023-05-22T14:07:02.734Z,28.11
2023-05-22T14:09:31.430Z,27.96
2023-05-22T14:11:59.374Z,27.78
2023-05-22T14:14:27.328Z,27.61
2023-05-22T14:16:55.456Z,27.40
2023-05-22T14:19:24.500Z,27.26
2023-05-22T14:21:52.737Z,27.18
2023-05-22T14:24:21.984Z,27.13
2023-05-22T14:26:49.897Z,27.21
2023-05-22T14:29:18.049Z,27.38
2023-05-22T14:31:50.425Z,27.53
2023-05-22T14:34:19.746Z,27.64
2023-05-22T14:36:48.301Z,27.66
2023-05-22T14:39:16.333Z,27.65
2023-05-22T14:41:45.722Z,27.70
2023-05-22T14:44:13.625Z,27.80
2023-05-22T14:46:41.552Z,27.90
2023-05-22T14:49:09.560Z,28.03
2023-05-22T14:51:37.467Z,27.92
2023-05-22T14:54:06.835Z,27.85
2023-05-22T14:56:35.047Z,27.60
2023-05-22T14:59:04.335Z,27.34
2023-05-22T15:01:32.319Z,27.12
2023-05-22T15:04:00.324Z,26.92
2023-05-22T15:06:28.458Z,26.73
2023-05-22T15:08:56.366Z,26.56
2023-05-22T15:11:24.287Z,26.32
2023-05-22T15:13:54.175Z,25.95
2023-05-22T15:16:23.648Z,25.60
2023-05-22T15:18:51.793Z,25.27
2023-05-22T15:21:20.129Z,24.87
2023-05-22T15:23:48.074Z,24.44
2023-05-22T15:26:16.365Z,24.12
2023-05-22T15:28:44.310Z,23.91
2023-05-22T15:31:13.907Z,23.72
2023-05-22T15:33:43.358Z,23.58
2023-05-22T15:36:11.321Z,23.43
2023-05-22T15:38:39.297Z,23.39
2023-05-22T15:41:07.178Z,23.39
2023-05-22T15:43:35.326Z,23.46
2023-05-22T15:46:04.487Z,23.49
2023-05-22T15:48:33.243Z,23.49
2023-05-22T15:51:07.284Z,23.49
2023-05-22T15:53:35.935Z,23.49
2023-05-22T15:56:04.178Z,23.50
2023-05-22T15:58:32.099Z,23.54
2023-05-22T16:01:00.456Z,23.57
2023-05-22T16:03:28.528Z,23.61
2023-05-22T16:05:56.619Z,23.71
2023-05-22T16:08:29.407Z,23.88
2023-05-22T16:11:00.693Z,24.26
2023-05-22T16:13:29.264Z,24.66
2023-05-22T16:15:57.339Z,25.15
2023-05-22T16:18:25.234Z,25.47
2023-05-22T16:20:53.193Z,25.62
2023-05-22T16:23:21.416Z,25.71
2023-05-22T16:25:50.977Z,25.70
2023-05-22T16:28:18.970Z,25.67
2023-05-22T16:30:46.944Z,25.78
2023-05-22T16:33:14.974Z,26.05
2023-05-22T16:35:46.751Z,26.39
2023-05-22T16:38:15.210Z,26.58
2023-05-22T16:40:43.219Z,26.68
2023-05-22T16:43:13.808Z,26.76
2023-05-22T16:45:46.548Z,26.81
2023-05-22T16:48:14.636Z,26.86
2023-05-22T16:50:44.122Z,26.89
2023-05-22T16:53:12.281Z,26.90
2023-05-22T16:55:40.605Z,26.90
2023-05-22T16:58:09.552Z,26.93
2023-05-22T17:00:40.297Z,26.96
2023-05-22T17:03:09.308Z,26.99
2023-05-22T17:05:38.728Z,26.86
2023-05-22T17:08:07.082Z,26.66
2023-05-22T17:10:35.071Z,26.39
2023-05-22T17:13:03.041Z,26.05
2023-05-22T17:15:31.183Z,25.74
2023-05-22T17:18:00.534Z,25.48
2023-05-22T17:20:29.411Z,25.26
2023-05-22T17:22:57.302Z,25.04
2023-05-22T17:25:25.418Z,24.89
2023-05-22T17:27:53.350Z,24.86
2023-05-22T17:30:21.689Z,24.82
2023-05-22T17:32:50.118Z,24.69
2023-05-22T17:35:19.406Z,24.61
2023-05-22T17:37:47.320Z,24.45
2023-05-22T17:40:15.260Z,24.30
2023-05-22T17:42:43.238Z,24.20
2023-05-22T17:45:11.782Z,24.06
2023-05-22T17:47:40.114Z,23.89
2023-05-22T17:50:09.062Z,23.74
2023-05-22T17:52:38.420Z,23.64
2023-05-22T17:55:06.950Z,23.48
2023-05-22T17:57:35.271Z,23.35
2023-05-22T18:00:05.760Z,23.24
2023-05-22T18:02:39.960Z,23.13
2023-05-22T18:05:12.174Z,23.04
2023-05-22T18:07:41.927Z,22.96
2023-05-22T18:10:10.582Z,22.85
2023-05-22T18:12:38.688Z,22.71
2023-05-22T18:15:09.544Z,22.61
2023-05-22T18:17:37.857Z,22.51
2023-05-22T18:20:07.455Z,22.44
2023-05-22T18:22:35.725Z,22.40
2023-05-22T18:25:05.552Z,22.22
2023-05-22T18:27:33.781Z,22.23
2023-05-22T18:30:01.871Z,22.11
2023-05-22T18:32:29.994Z,22.05
2023-05-22T18:34:58.553Z,21.98
2023-05-22T18:37:27.956Z,21.93
2023-05-22T18:39:55.974Z,21.91
2023-05-22T18:42:25.279Z,21.78
2023-05-22T18:44:53.368Z,21.68
2023-05-22T18:47:21.439Z,21.58
2023-05-22T18:49:49.451Z,21.51
2023-05-22T18:52:17.408Z,21.41
2023-05-22T18:54:48.528Z,21.41
2023-05-22T18:57:16.607Z,21.38
2023-05-22T18:59:47.501Z,21.27
2023-05-22T19:02:21.222Z,21.28
2023-05-22T19:04:49.850Z,21.24
2023-05-22T19:07:17.804Z,21.17
2023-05-22T19:09:45.951Z,21.08
2023-05-22T19:12:14.144Z,21.07
2023-05-22T19:14:42.057Z,21.04
2023-05-22T19:17:11.557Z,21.02
2023-05-22T19:19:39.556Z,20.93
2023-05-22T19:22:07.559Z,20.84
2023-05-22T19:24:36.371Z,20.75
2023-05-22T19:27:04.622Z,20.74
2023-05-22T19:29:32.513Z,20.75
2023-05-22T19:32:00.502Z,20.75
2023-05-22T19:34:29.821Z,20.68
2023-05-22T19:36:57.923Z,20.53
2023-05-22T19:39:26.067Z,20.32
2023-05-22T19:41:54.613Z,20.27
2023-05-22T19:44:22.666Z,20.36
2023-05-22T19:46:50.766Z,20.40
2023-05-22T19:49:19.876Z,20.42
2023-05-22T19:51:49.267Z,20.44
2023-05-22T19:54:17.166Z,20.48
2023-05-22T19:56:45.059Z,20.47
2023-05-22T19:59:12.904Z,20.39
2023-05-22T20:01:40.804Z,20.34
2023-05-22T20:04:08.918Z,20.37
2023-05-22T20:06:36.901Z,20.42
2023-05-22T20:09:06.397Z,20.42
2023-05-22T20:11:34.325Z,20.43
2023-05-22T20:14:03.387Z,20.40
2023-05-22T20:16:31.694Z,20.36
2023-05-22T20:18:59.770Z,20.31
2023-05-22T20:21:27.774Z,20.19
2023-05-22T20:23:55.874Z,20.05
2023-05-22T20:26:25.107Z,19.90
2023-05-22T20:28:53.258Z,19.73
2023-05-22T20:31:21.218Z,19.56
2023-05-22T20:33:49.323Z,19.44
2023-05-22T20:36:18.775Z,19.47
2023-05-22T20:38:46.761Z,19.55
2023-05-22T20:41:15.496Z,19.71
2023-05-22T20:43:44.998Z,19.82
2023-05-22T20:46:13.215Z,19.89
2023-05-22T20:48:46.748Z,19.93
2023-05-22T20:51:15.652Z,19.93
2023-05-22T20:53:44.145Z,19.94
2023-05-22T20:56:12.046Z,19.94
2023-05-22T20:58:40.028Z,19.91
2023-05-22T21:01:09.502Z,19.84
2023-05-22T21:03:37.827Z,19.80
2023-05-22T21:06:06.272Z,19.72
2023-05-22T21:08:34.214Z,19.68
2023-05-22T21:11:02.121Z,19.67
2023-05-22T21:13:30.086Z,19.67
2023-05-22T21:15:58.010Z,19.64
2023-05-22T21:18:27.367Z,19.62
2023-05-22T21:20:55.400Z,19.63
2023-05-22T21:23:24.722Z,19.64
2023-05-22T21:25:52.789Z,19.61
2023-05-22T21:28:20.724Z,19.45
2023-05-22T21:30:48.841Z,19.20
2023-05-22T21:33:16.776Z,19.08
2023-05-22T21:35:46.008Z,19.06
2023-05-22T21:38:13.935Z,19.08
2023-05-22T21:40:42.724Z,19.15
2023-05-22T21:43:11.006Z,19.24
2023-05-22T21:45:39.031Z,19.29
2023-05-22T21:48:07.148Z,19.29
2023-05-22T21:50:35.057Z,19.36
2023-05-22T21:53:04.331Z,19.35
2023-05-22T21:55:32.645Z,19.42
2023-05-22T21:58:00.582Z,19.38
2023-05-22T22:00:29.546Z,19.22
2023-05-22T22:02:57.743Z,19.10
2023-05-22T22:05:27.586Z,19.03
2023-05-22T22:07:55.582Z,19.02
2023-05-22T22:10:24.822Z,19.04
2023-05-22T22:12:52.728Z,19.05
2023-05-22T22:15:21.780Z,19.10
2023-05-22T22:17:50.056Z,19.15
2023-05-22T22:20:20.415Z,19.11
2023-05-22T22:22:52.815Z,18.99
2023-05-22T22:25:20.900Z,18.90
2023-05-22T22:27:50.583Z,18.80
2023-05-22T22:30:18.516Z,18.65
2023-05-22T22:32:48.171Z,18.55
2023-05-22T22:35:16.860Z,18.41
2023-05-22T22:37:46.382Z,18.32
2023-05-22T22:40:14.486Z,18.43
2023-05-22T22:42:42.415Z,18.41
2023-05-22T22:45:12.040Z,18.44
2023-05-22T22:47:40.514Z,18.51
2023-05-22T22:50:10.096Z,18.48
2023-05-22T22:52:38.441Z,18.53
2023-05-22T22:55:07.624Z,18.64
2023-05-22T22:57:36.042Z,18.70
2023-05-22T23:00:04.329Z,18.71
2023-05-22T23:02:34.312Z,18.67
2023-05-22T23:05:03.073Z,18.56
2023-05-22T23:07:31.144Z,18.57
2023-05-22T23:09:59.176Z,18.38
2023-05-22T23:12:27.090Z,18.40
2023-05-22T23:14:55.424Z,18.44
2023-05-22T23:17:23.281Z,18.43
2023-05-22T23:19:52.555Z,18.46
2023-05-22T23:22:20.460Z,18.46
2023-05-22T23:24:48.461Z,18.49
2023-05-22T23:27:16.491Z,18.47
2023-05-22T23:29:44.418Z,18.46
2023-05-22T23:32:14.537Z,18.36
2023-05-22T23:34:43.254Z,18.25
2023-05-22T23:37:12.474Z,18.27
2023-05-22T23:39:40.463Z,18.28
2023-05-22T23:42:09.776Z,18.27
2023-05-22T23:44:37.904Z,18.17
2023-05-22T23:47:06.576Z,18.03
2023-05-22T23:49:34.637Z,18.06
2023-05-22T23:52:02.557Z,18.04
2023-05-22T23:54:31.889Z,18.02
2023-05-22T23:56:59.740Z,18.04
2023-05-22T23:59:27.734Z,18.04
